Time;durP1;ratioP1;P1;durP2;ratioP2;P2;SDS_P1;SDS_P2;PMS_P1;PMS_P2;Temp;Humidity;BMP_temperature;BMP_pressure;BME280_temperature;BME280_humidity;BME280_pressure;Samples;Min_cycle;Max_cycle;Signal;HPM_P1;HPM_P2
2022/04/12 00:00:49;;;;;;;5.80;0.75;;;23.60;99.50;;;;;;4963746;28;20089;-74
2022/04/12 00:03:16;;;;;;;7.05;0.70;;;23.30;99.90;;;;;;4963487;28;20025;-72
2022/04/12 00:05:44;;;;;;;3.75;0.73;;;23.10;99.90;;;;;;4962445;28;20030;-72
2022/04/12 00:08:11;;;;;;;2.72;0.70;;;22.90;99.90;;;;;;4954458;28;20035;-74
2022/04/12 00:10:39;;;;;;;2.85;0.80;;;22.90;99.90;;;;;;4961690;28;20029;-73
2022/04/12 00:13:06;;;;;;;4.40;0.77;;;22.80;99.90;;;;;;4963454;28;20122;-73
2022/04/12 00:15:34;;;;;;;7.35;1.38;;;22.90;99.90;;;;;;4963161;28;20025;-73
2022/04/12 00:20:48;;;;;;;3.88;0.50;;;22.80;99.90;;;;;;4965530;28;20089;-74
2022/04/12 00:23:16;;;;;;;4.53;0.77;;;22.90;99.90;;;;;;4969302;28;20034;-74
2022/04/12 00:25:44;;;;;;;4.75;0.70;;;22.90;99.90;;;;;;4963876;28;20039;-73
2022/04/12 00:28:13;;;;;;;5.88;0.90;;;23.00;99.90;;;;;;4965725;28;20049;-73
2022/04/12 00:30:40;;;;;;;6.00;0.90;;;23.10;99.90;;;;;;4972913;28;20026;-73
2022/04/12 00:33:07;;;;;;;4.68;1.10;;;23.10;99.90;;;;;;4963215;28;20070;-73
2022/04/12 00:35:35;;;;;;;6.82;1.05;;;23.00;99.90;;;;;;4962595;28;20034;-72
2022/04/12 00:38:13;;;;;;;3.60;0.55;;;22.90;99.90;;;;;;4962112;28;20167;-73
2022/04/12 00:40:42;;;;;;;4.32;0.40;;;22.90;99.90;;;;;;4965673;28;20035;-73
2022/04/12 00:43:09;;;;;;;6.78;0.80;;;22.90;99.90;;;;;;4963210;28;20516;-73
2022/04/12 00:45:36;;;;;;;5.82;1.00;;;23.00;99.90;;;;;;4960604;28;20054;-73
2022/04/12 00:48:04;;;;;;;4.95;1.67;;;23.10;99.90;;;;;;4968165;28;20460;-74
2022/04/12 00:50:31;;;;;;;5.38;0.70;;;23.30;99.90;;;;;;4969581;28;20026;-73
2022/04/12 00:53:00;;;;;;;3.20;0.60;;;23.50;99.90;;;;;;4967064;28;20034;-72
2022/04/12 00:55:32;;;;;;;6.05;0.70;;;23.50;99.90;;;;;;4970246;28;20030;-74
2022/04/12 00:58:05;;;;;;;8.80;1.92;;;23.70;99.90;;;;;;4967869;28;20066;-73
2022/04/12 01:00:33;;;;;;;4.57;1.23;;;23.90;99.90;;;;;;4962817;28;20147;-72
2022/04/12 01:03:01;;;;;;;9.07;1.05;;;24.20;99.90;;;;;;4970535;28;20082;-73
2022/04/12 01:05:29;;;;;;;2.05;0.70;;;24.30;99.90;;;;;;4965635;28;20031;-74
2022/04/12 01:07:57;;;;;;;3.80;0.77;;;24.20;99.90;;;;;;4964448;28;20042;-73
2022/04/12 01:10:24;;;;;;;3.28;0.52;;;24.10;99.90;;;;;;4961458;28;20053;-74
2022/04/12 01:12:53;;;;;;;5.13;0.70;;;24.10;99.90;;;;;;4963123;28;20117;-73
2022/04/12 01:15:26;;;;;;;6.45;0.70;;;24.10;99.90;;;;;;4965531;28;20031;-77
2022/04/12 01:17:54;;;;;;;2.15;0.80;;;24.00;99.90;;;;;;4967902;28;20026;-77
2022/04/12 01:20:29;;;;;;;6.35;0.75;;;24.00;99.90;;;;;;4968076;28;20035;-76
2022/04/12 01:23:02;;;;;;;8.50;0.70;;;23.80;99.90;;;;;;4970395;28;20066;-76
2022/04/12 01:25:30;;;;;;;7.30;0.90;;;23.80;99.90;;;;;;4956576;28;20034;-75
2022/04/12 01:27:58;;;;;;;7.20;1.15;;;23.80;99.90;;;;;;4959835;28;20158;-76
2022/04/12 01:30:26;;;;;;;7.13;0.70;;;23.70;99.90;;;;;;4967616;28;20038;-77
2022/04/12 01:32:53;;;;;;;6.97;0.50;;;23.80;99.90;;;;;;4968485;28;20030;-76
2022/04/12 01:35:20;;;;;;;2.95;0.45;;;23.90;99.90;;;;;;4972425;28;20034;-77
2022/04/12 01:37:48;;;;;;;3.50;0.70;;;23.90;99.90;;;;;;4969874;28;20050;-75
2022/04/12 01:40:15;;;;;;;5.90;2.08;;;24.00;99.90;;;;;;4967008;28;20031;-78
2022/04/12 01:42:42;;;;;;;6.13;1.40;;;24.30;99.90;;;;;;4963852;28;20539;-76
2022/04/12 01:45:10;;;;;;;2.70;0.60;;;24.80;99.20;;;;;;4963331;28;20166;-77
2022/04/12 01:47:38;;;;;;;4.40;0.68;;;25.50;99.00;;;;;;4970304;28;20048;-77
2022/04/12 01:50:06;;;;;;;2.58;1.08;;;26.80;98.20;;;;;;4966486;28;20477;-76
2022/04/12 01:52:35;;;;;;;3.67;0.60;;;27.80;96.70;;;;;;4971248;28;20035;-76
2022/04/12 01:55:02;;;;;;;5.82;0.90;;;28.40;96.20;;;;;;4967199;28;20381;-77
2022/04/12 01:57:30;;;;;;;2.75;0.50;;;28.50;95.20;;;;;;4966196;28;20090;-77
2022/04/12 01:59:58;;;;;;;3.88;0.73;;;28.10;95.90;;;;;;4966583;28;20031;-77
2022/04/12 02:02:26;;;;;;;6.03;1.50;;;27.40;95.40;;;;;;4967225;28;20105;-78
2022/04/12 02:04:53;;;;;;;6.32;0.88;;;26.80;96.00;;;;;;4965775;28;20519;-77
2022/04/12 02:07:20;;;;;;;3.00;1.00;;;26.20;96.30;;;;;;4972179;28;20493;-75
2022/04/12 02:09:48;;;;;;;4.80;0.70;;;25.70;97.30;;;;;;4964768;28;20085;-75
2022/04/12 02:12:15;;;;;;;4.07;0.80;;;25.40;97.30;;;;;;4967597;28;20038;-77
2022/04/12 02:14:43;;;;;;;4.50;0.88;;;25.20;97.60;;;;;;4970756;28;20038;-76
2022/04/12 02:17:10;;;;;;;4.13;1.02;;;25.20;98.30;;;;;;4968319;28;20027;-76
2022/04/12 02:19:37;;;;;;;5.63;1.55;;;25.30;98.70;;;;;;4964096;28;20022;-74
2022/04/12 02:22:05;;;;;;;3.17;0.50;;;25.60;97.10;;;;;;4964684;28;20041;-76
2022/04/12 02:24:32;;;;;;;4.85;0.77;;;25.40;97.40;;;;;;4968016;28;20109;-77
2022/04/12 02:27:00;;;;;;;3.88;0.60;;;24.90;97.60;;;;;;4971784;28;20092;-74
2022/04/12 02:29:27;;;;;;;3.50;0.77;;;24.70;98.30;;;;;;4959442;28;20449;-76
2022/04/12 02:31:54;;;;;;;4.70;0.85;;;24.60;98.80;;;;;;4961904;28;20097;-76
2022/04/12 02:34:22;;;;;;;3.58;0.70;;;25.30;98.80;;;;;;4973937;28;20045;-75
2022/04/12 02:36:49;;;;;;;4.75;1.00;;;25.60;98.40;;;;;;4973408;28;20377;-76
2022/04/12 02:39:16;;;;;;;6.22;0.80;;;25.40;97.90;;;;;;4974722;28;20066;-77
2022/04/12 02:41:44;;;;;;;3.95;0.80;;;25.00;97.90;;;;;;4972853;28;20039;-76
2022/04/12 02:44:11;;;;;;;2.25;0.70;;;24.90;97.90;;;;;;4973612;28;20545;-76
2022/04/12 02:46:40;;;;;;;5.50;0.95;;;24.80;99.00;;;;;;4963175;28;20035;-76
2022/04/12 02:49:08;;;;;;;3.67;0.60;;;25.40;98.30;;;;;;4974527;28;20065;-77
2022/04/12 02:51:35;;;;;;;2.15;0.63;;;26.40;97.90;;;;;;4973575;28;20497;-77
2022/04/12 02:54:03;;;;;;;4.45;1.05;;;27.50;95.90;;;;;;4973553;28;20035;-77
2022/04/12 02:56:30;;;;;;;6.13;1.00;;;27.40;95.40;;;;;;4972847;28;20027;-75
2022/04/12 02:58:58;;;;;;;3.13;0.65;;;27.70;95.20;;;;;;4966983;28;20031;-74
2022/04/12 03:01:25;;;;;;;6.95;1.00;;;28.00;95.40;;;;;;4973461;28;20027;-76
2022/04/12 03:03:53;;;;;;;3.63;0.82;;;28.50;94.30;;;;;;4973419;28;20030;-77
2022/04/12 03:06:20;;;;;;;4.82;1.30;;;29.00;94.00;;;;;;4972877;28;20626;-77
2022/04/12 03:08:47;;;;;;;4.80;1.83;;;29.00;93.20;;;;;;4972074;28;20122;-77
2022/04/12 03:11:15;;;;;;;5.03;1.27;;;28.90;93.00;;;;;;4972373;28;20049;-76
2022/04/12 03:13:42;;;;;;;4.07;0.70;;;29.00;93.20;;;;;;4972574;28;20038;-76
2022/04/12 03:16:10;;;;;;;4.47;1.40;;;29.20;94.30;;;;;;4972071;28;20030;-76
2022/04/12 03:18:37;;;;;;;5.57;1.35;;;29.20;93.10;;;;;;4970947;28;20019;-75
2022/04/12 03:21:04;;;;;;;4.45;0.63;;;29.00;92.80;;;;;;4973483;28;20401;-76
2022/04/12 03:23:32;;;;;;;3.95;0.77;;;28.70;92.20;;;;;;4973084;28;20030;-75
2022/04/12 03:25:59;;;;;;;2.70;0.75;;;28.70;92.70;;;;;;4973655;28;20026;-76
2022/04/12 03:28:26;;;;;;;6.50;1.83;;;28.60;92.20;;;;;;4970837;28;20045;-75
2022/04/12 03:30:54;;;;;;;3.72;0.75;;;28.30;93.40;;;;;;4992820;28;20049;-74
2022/04/12 03:33:21;;;;;;;7.97;1.17;;;28.50;92.90;;;;;;4980715;28;20038;-75
2022/04/12 03:35:49;;;;;;;12.30;1.98;;;28.70;92.60;;;;;;4989693;28;20043;-76
2022/04/12 03:38:16;;;;;;;4.78;0.70;;;28.40;93.30;;;;;;4975015;28;20069;-75
2022/04/12 03:40:46;;;;;;;6.93;1.30;;;28.10;93.80;;;;;;4972548;28;20035;-76
2022/04/12 03:43:14;;;;;;;4.90;0.77;;;28.10;92.80;;;;;;4974112;28;20050;-74
2022/04/12 03:45:42;;;;;;;2.33;0.60;;;28.20;92.70;;;;;;4967586;28;20027;-74
2022/04/12 03:48:11;;;;;;;3.78;0.95;;;28.10;92.30;;;;;;4970927;28;20129;-74
2022/04/12 03:50:38;;;;;;;2.80;0.80;;;27.60;92.90;;;;;;4970013;28;20041;-73
2022/04/12 03:53:06;;;;;;;1.80;0.70;;;27.70;93.40;;;;;;4972466;28;20038;-73
2022/04/12 03:55:39;;;;;;;4.15;0.68;;;27.70;93.40;;;;;;4971678;28;20106;-73
2022/04/12 03:58:08;;;;;;;3.33;0.52;;;27.70;93.10;;;;;;4972141;28;20042;-73
2022/04/12 04:00:36;;;;;;;4.85;0.70;;;27.20;92.90;;;;;;4972278;28;20033;-74
2022/04/12 04:03:03;;;;;;;3.63;0.57;;;26.70;93.60;;;;;;4970350;28;20910;-74
2022/04/12 04:05:31;;;;;;;7.53;1.17;;;26.10;94.00;;;;;;4971613;28;20031;-75
2022/04/12 04:07:58;;;;;;;2.50;0.75;;;25.70;94.80;;;;;;4972013;28;20120;-74
2022/04/12 04:10:34;;;;;;;3.40;1.25;;;25.30;94.90;;;;;;4953820;28;20066;-74
2022/04/12 04:13:04;;;;;;;5.20;0.85;;;25.30;94.90;;;;;;4971929;28;20038;-74
2022/04/12 04:15:33;;;;;;;4.05;1.17;;;25.60;95.30;;;;;;4972007;28;20124;-74
2022/04/12 04:18:01;;;;;;;7.53;1.23;;;25.40;94.90;;;;;;4971078;28;20031;-75
2022/04/12 04:20:29;;;;;;;2.63;0.95;;;25.30;95.20;;;;;;4972472;28;20121;-74
2022/04/12 04:22:56;;;;;;;3.30;0.95;;;25.30;95.70;;;;;;4963908;28;20087;-74
2022/04/12 04:25:23;;;;;;;8.07;1.88;;;25.20;95.70;;;;;;4967203;28;20165;-75
2022/04/12 04:27:52;;;;;;;6.78;0.70;;;25.00;96.20;;;;;;4970806;28;20043;-73
2022/04/12 04:30:20;;;;;;;7.70;1.13;;;24.70;96.20;;;;;;4970749;28;20086;-73
2022/04/12 04:32:49;;;;;;;2.85;0.93;;;24.50;96.80;;;;;;4962354;28;20366;-73
2022/04/12 04:35:17;;;;;;;8.40;1.38;;;24.30;97.00;;;;;;4966104;28;20031;-73
2022/04/12 04:37:46;;;;;;;4.80;0.88;;;24.10;97.10;;;;;;4958189;28;20057;-74
2022/04/12 04:40:18;;;;;;;5.45;1.02;;;24.20;97.10;;;;;;4969701;28;20031;-74
2022/04/12 04:42:46;;;;;;;6.22;1.90;;;24.20;97.00;;;;;;4971331;28;20034;-72
2022/04/12 04:45:15;;;;;;;4.05;0.95;;;24.20;97.00;;;;;;4967404;28;20031;-74
2022/04/12 04:47:49;;;;;;;4.40;1.00;;;24.40;97.40;;;;;;4968726;28;20070;-74
2022/04/12 04:50:19;;;;;;;3.80;0.70;;;24.70;96.90;;;;;;4970646;28;20039;-74
2022/04/12 04:52:46;;;;;;;5.55;1.45;;;24.70;96.30;;;;;;4970546;28;20106;-73
2022/04/12 04:55:14;;;;;;;6.22;1.65;;;24.70;96.40;;;;;;4962881;28;20474;-73
2022/04/12 04:57:44;;;;;;;6.00;1.20;;;24.60;96.20;;;;;;4970261;28;20082;-73
2022/04/12 05:00:17;;;;;;;4.90;1.60;;;24.50;96.50;;;;;;4971667;28;20026;-74
2022/04/12 05:02:48;;;;;;;8.10;2.05;;;24.20;96.80;;;;;;4970417;28;20031;-74
2022/04/12 05:05:17;;;;;;;4.20;1.20;;;24.10;97.00;;;;;;4967369;28;20038;-73
2022/04/12 05:07:54;;;;;;;5.55;1.77;;;24.00;97.20;;;;;;4970404;28;20045;-72
2022/04/12 05:10:23;;;;;;;6.80;1.00;;;23.80;97.20;;;;;;4970246;28;20101;-73
2022/04/12 05:12:51;;;;;;;5.10;0.88;;;23.70;97.80;;;;;;4971341;28;20038;-73
2022/04/12 05:15:20;;;;;;;4.07;1.00;;;23.60;97.70;;;;;;4971364;28;20031;-73
2022/04/12 05:17:54;;;;;;;7.55;2.05;;;23.50;98.00;;;;;;4970108;28;20031;-75
2022/04/12 05:20:24;;;;;;;4.55;1.10;;;23.40;97.90;;;;;;4971192;28;20101;-74
2022/04/12 05:22:52;;;;;;;6.93;0.98;;;23.30;98.30;;;;;;4971184;28;20031;-75
2022/04/12 05:25:20;;;;;;;5.15;0.85;;;23.20;98.30;;;;;;4970829;28;20031;-74
2022/04/12 05:27:48;;;;;;;3.47;0.75;;;23.10;98.20;;;;;;4958151;28;20835;-75
2022/04/12 05:30:19;;;;;;;3.80;1.00;;;23.00;98.30;;;;;;4952541;28;20023;-74
2022/04/12 05:32:47;;;;;;;5.40;0.93;;;23.00;98.60;;;;;;4968843;28;20039;-74
2022/04/12 05:35:15;;;;;;;5.10;1.25;;;22.90;98.50;;;;;;4970883;28;20041;-74
2022/04/12 05:37:52;;;;;;;6.57;0.98;;;22.80;98.70;;;;;;4969873;28;20046;-73
2022/04/12 05:40:21;;;;;;;5.78;1.30;;;22.70;99.20;;;;;;4969040;28;20097;-75
2022/04/12 05:42:51;;;;;;;5.15;1.20;;;22.70;99.10;;;;;;4970803;28;20106;-73
2022/04/12 05:45:18;;;;;;;4.05;1.33;;;22.60;99.20;;;;;;4966464;28;20027;-74
2022/04/12 05:47:49;;;;;;;6.85;2.08;;;22.60;99.00;;;;;;4966914;28;20097;-74
2022/04/12 05:50:18;;;;;;;5.50;1.05;;;22.60;99.10;;;;;;4969184;28;20122;-74
2022/04/12 05:52:45;;;;;;;8.43;2.45;;;22.50;99.10;;;;;;4970956;28;20077;-74
2022/04/12 05:55:16;;;;;;;5.25;1.13;;;22.40;99.50;;;;;;4970287;28;20495;-74
2022/04/12 05:57:55;;;;;;;7.13;1.95;;;22.30;99.50;;;;;;4969101;28;20027;-74
2022/04/12 06:00:23;;;;;;;6.00;1.83;;;22.20;99.60;;;;;;4955862;28;20055;-75
2022/04/12 06:02:52;;;;;;;11.68;1.17;;;22.10;99.70;;;;;;4969331;28;20034;-73
2022/04/12 06:05:22;;;;;;;8.70;1.38;;;22.10;99.80;;;;;;4969259;28;20524;-74
2022/04/12 06:07:50;;;;;;;7.40;2.42;;;22.00;99.90;;;;;;4970536;28;20050;-73
2022/04/12 06:10:19;;;;;;;4.25;1.50;;;21.90;99.90;;;;;;4970100;28;20023;-74
2022/04/12 06:12:47;;;;;;;5.55;2.45;;;21.90;99.90;;;;;;4970912;28;20034;-74
2022/04/12 06:15:14;;;;;;;11.75;1.50;;;21.90;99.90;;;;;;4970532;28;20034;-74
2022/04/12 06:17:42;;;;;;;8.93;1.83;;;21.80;99.90;;;;;;4971809;28;20350;-74
2022/04/12 06:20:17;;;;;;;5.30;1.67;;;21.90;99.90;;;;;;4973904;28;20038;-73
2022/04/12 06:22:45;;;;;;;3.37;1.60;;;21.80;99.90;;;;;;4974316;28;20030;-74
2022/04/12 06:25:19;;;;;;;6.95;1.88;;;21.70;99.90;;;;;;4972861;28;20277;-74
2022/04/12 06:27:51;;;;;;;5.05;2.08;;;21.70;99.90;;;;;;4974355;28;20054;-74
2022/04/12 06:30:30;;;;;;;5.95;1.63;;;21.70;99.90;;;;;;4973361;28;20721;-74
2022/04/12 06:32:58;;;;;;;7.00;1.48;;;21.70;99.90;;;;;;4972524;28;20425;-75
2022/04/12 06:35:25;;;;;;;7.82;1.77;;;21.70;99.90;;;;;;4974035;28;20031;-75
2022/04/12 06:38:02;;;;;;;9.20;2.47;;;21.80;99.90;;;;;;4959944;28;20520;-74
2022/04/12 06:40:29;;;;;;;5.80;2.10;;;21.80;99.90;;;;;;4973674;28;20117;-74
2022/04/12 06:42:56;;;;;;;10.75;3.17;;;21.70;99.90;;;;;;4974001;28;20038;-74
2022/04/12 06:45:24;;;;;;;9.15;2.15;;;21.70;99.90;;;;;;4968717;28;20082;-74
2022/04/12 06:47:56;;;;;;;5.45;1.70;;;21.60;99.90;;;;;;4969397;28;20067;-75
2022/04/12 06:50:24;;;;;;;5.65;1.48;;;21.60;99.90;;;;;;4973392;28;20161;-73
2022/04/12 06:52:52;;;;;;;4.32;1.85;;;21.40;99.90;;;;;;4973267;28;20114;-73
2022/04/12 06:55:21;;;;;;;5.20;2.35;;;21.30;99.90;;;;;;4973468;28;20077;-76
2022/04/12 06:57:48;;;;;;;4.40;1.70;;;21.30;99.90;;;;;;4972882;28;20038;-75
2022/04/12 07:00:17;;;;;;;8.32;2.15;;;21.10;99.90;;;;;;4973183;28;20118;-75
2022/04/12 07:02:46;;;;;;;5.43;2.25;;;21.00;99.90;;;;;;4972673;28;20481;-76
2022/04/12 07:05:13;;;;;;;7.95;2.00;;;20.80;99.90;;;;;;4965623;28;20118;-74
2022/04/12 07:07:42;;;;;;;6.22;2.83;;;20.80;99.90;;;;;;4965588;28;20038;-75
2022/04/12 07:10:11;;;;;;;4.95;1.70;;;20.80;99.90;;;;;;4964433;28;20066;-78
2022/04/12 07:12:40;;;;;;;4.05;2.10;;;20.80;99.90;;;;;;4972202;28;20038;-77
2022/04/12 07:15:09;;;;;;;4.75;2.35;;;20.80;99.90;;;;;;4964993;28;20038;-76
2022/04/12 07:17:37;;;;;;;3.85;2.20;;;20.70;99.90;;;;;;4971549;28;20031;-74
2022/04/12 07:20:05;;;;;;;9.57;2.85;;;20.60;99.90;;;;;;4968435;28;20061;-76
2022/04/12 07:22:32;;;;;;;8.30;2.22;;;20.50;99.90;;;;;;4969210;28;20065;-74
2022/04/12 07:25:00;;;;;;;9.65;2.92;;;20.50;99.90;;;;;;4963431;28;20031;-75
2022/04/12 07:27:27;;;;;;;7.25;2.45;;;20.50;99.90;;;;;;4964825;28;20031;-75
2022/04/12 07:29:56;;;;;;;6.35;1.77;;;20.40;99.90;;;;;;4964909;28;20405;-76
2022/04/12 07:32:23;;;;;;;12.65;1.92;;;20.30;99.90;;;;;;4971966;28;20035;-77
2022/04/12 07:34:50;;;;;;;6.88;2.42;;;20.20;99.90;;;;;;4988254;28;20037;-76
2022/04/12 07:37:17;;;;;;;4.43;2.03;;;20.20;99.90;;;;;;4981030;28;20038;-75
2022/04/12 07:39:45;;;;;;;4.85;1.85;;;20.10;99.90;;;;;;4973523;28;20030;-75
2022/04/12 07:42:13;;;;;;;6.68;2.10;;;20.10;99.90;;;;;;4958228;28;20091;-77
2022/04/12 07:44:41;;;;;;;6.13;2.08;;;20.00;99.90;;;;;;4964153;28;20042;-77
2022/04/12 07:47:08;;;;;;;4.53;1.55;;;20.10;99.90;;;;;;4963917;28;20086;-78
2022/04/12 07:49:36;;;;;;;4.47;2.10;;;20.00;99.90;;;;;;4965828;28;20118;-77
2022/04/12 07:52:03;;;;;;;12.75;1.88;;;20.00;99.90;;;;;;4961585;28;20426;-79
2022/04/12 07:54:30;;;;;;;5.70;2.33;;;20.00;99.90;;;;;;4960957;28;20039;-78
2022/04/12 07:56:58;;;;;;;5.03;2.03;;;19.90;99.90;;;;;;4965594;28;20026;-79
2022/04/12 07:59:25;;;;;;;6.15;2.13;;;19.90;99.90;;;;;;4973934;28;20034;-77
2022/04/12 08:01:52;;;;;;;4.65;1.77;;;19.80;99.90;;;;;;4973944;28;20496;-79
2022/04/12 08:04:20;;;;;;;4.30;2.20;;;19.90;99.90;;;;;;4971336;28;20127;-78
2022/04/12 08:06:51;;;;;;;5.35;2.75;;;19.90;99.90;;;;;;4972417;28;20089;-80
2022/04/12 08:09:18;;;;;;;3.75;1.88;;;19.80;99.90;;;;;;4953855;28;20121;-79
2022/04/12 08:11:45;;;;;;;3.88;2.00;;;19.80;99.90;;;;;;4963749;28;20101;-78
2022/04/12 08:14:13;;;;;;;5.97;2.65;;;19.70;99.90;;;;;;4972751;28;20031;-79
2022/04/12 08:16:40;;;;;;;7.75;2.03;;;19.70;99.90;;;;;;4972784;28;20035;-77
2022/04/12 08:19:07;;;;;;;17.80;2.78;;;19.70;99.90;;;;;;4974136;28;20714;-80
2022/04/12 08:21:37;;;;;;;4.95;2.28;;;19.70;99.90;;;;;;4972360;28;20062;-78
2022/04/12 08:24:05;;;;;;;8.48;2.72;;;19.70;99.90;;;;;;4971666;28;20437;-79
2022/04/12 08:26:33;;;;;;;4.22;1.85;;;19.70;99.90;;;;;;4972748;28;20380;-79
2022/04/12 08:29:00;;;;;;;5.15;2.30;;;19.60;99.90;;;;;;4972418;28;20038;-77
2022/04/12 08:31:27;;;;;;;3.67;1.48;;;19.70;99.90;;;;;;4971712;28;20030;-78
2022/04/12 08:33:55;;;;;;;9.70;2.40;;;19.70;99.90;;;;;;4973053;28;20038;-78
2022/04/12 08:36:22;;;;;;;5.55;2.13;;;19.70;99.90;;;;;;4970476;28;20050;-78
2022/04/12 08:38:51;;;;;;;8.93;2.05;;;19.60;99.90;;;;;;4971812;28;20038;-77
2022/04/12 08:41:20;;;;;;;10.63;2.28;;;19.60;99.90;;;;;;4971134;28;20354;-77
2022/04/12 08:43:52;;;;;;;9.82;3.00;;;19.60;99.90;;;;;;4973156;28;20122;-79
2022/04/12 08:46:21;;;;;;;5.13;2.08;;;19.60;99.90;;;;;;4957585;28;20159;-77
2022/04/12 08:48:49;;;;;;;6.25;1.83;;;19.60;99.90;;;;;;4971907;28;20077;-77
2022/04/12 08:51:17;;;;;;;5.30;1.83;;;19.60;99.90;;;;;;4972657;28;20035;-78
2022/04/12 08:53:46;;;;;;;8.40;2.05;;;19.60;99.90;;;;;;4972131;28;20390;-77
2022/04/12 08:56:13;;;;;;;6.82;1.58;;;19.60;99.90;;;;;;4969902;28;20315;-78
2022/04/12 08:58:41;;;;;;;4.22;1.33;;;19.50;99.90;;;;;;4971200;28;20030;-78
2022/04/12 09:01:09;;;;;;;1.98;1.67;;;19.50;99.90;;;;;;4971485;28;20162;-78
2022/04/12 09:03:36;;;;;;;4.53;1.42;;;19.60;99.90;;;;;;4970947;28;20030;-77
2022/04/12 09:06:04;;;;;;;3.55;1.70;;;19.60;99.90;;;;;;4971716;28;20034;-77
2022/04/12 09:08:33;;;;;;;3.63;1.50;;;19.60;99.90;;;;;;4966831;28;20125;-78
2022/04/12 09:11:08;;;;;;;5.90;2.67;;;19.60;99.90;;;;;;4973158;28;20030;-77
2022/04/12 09:13:36;;;;;;;10.38;2.67;;;19.70;99.90;;;;;;4964147;28;20035;-77
2022/04/12 09:16:09;;;;;;;7.65;2.25;;;19.70;99.90;;;;;;4972018;28;20090;-78
2022/04/12 09:18:48;;;;;;;2.95;1.73;;;19.70;99.90;;;;;;4972187;28;20031;-78
2022/04/12 09:21:20;;;;;;;6.50;2.90;;;19.70;99.90;;;;;;4971003;28;20069;-77
2022/04/12 09:24:21;;;;;;;4.68;2.15;;;19.70;99.90;;;;;;4958834;28;20117;-77
2022/04/12 09:27:19;;;;;;;9.38;2.13;;;19.70;99.90;;;;;;4972597;28;20074;-78
2022/04/12 09:29:51;;;;;;;9.48;1.80;;;19.70;99.90;;;;;;4967493;28;20078;-78
2022/04/12 09:32:24;;;;;;;6.80;2.22;;;19.70;99.90;;;;;;4970186;28;20049;-78
2022/04/12 09:34:53;;;;;;;12.30;3.53;;;19.70;99.90;;;;;;4971472;28;20547;-77
2022/04/12 09:37:26;;;;;;;4.90;2.35;;;19.70;99.90;;;;;;4960413;28;20061;-77
2022/04/12 09:40:02;;;;;;;6.25;2.35;;;19.70;99.90;;;;;;4972634;28;20031;-77
2022/04/12 09:42:48;;;;;;;6.47;2.75;;;19.70;99.90;;;;;;4973586;28;20050;-77
2022/04/12 09:45:22;;;;;;;5.45;2.13;;;19.70;99.90;;;;;;4957915;28;20066;-77
2022/04/12 09:47:52;;;;;;;7.78;2.10;;;19.70;99.90;;;;;;4971483;28;20035;-77
2022/04/12 09:50:26;;;;;;;4.32;2.28;;;19.70;99.90;;;;;;4972491;28;20544;-78
2022/04/12 09:53:03;;;;;;;8.95;2.88;;;19.70;99.90;;;;;;4973684;28;20473;-78
2022/04/12 09:55:47;;;;;;;4.70;2.90;;;19.70;99.90;;;;;;4974589;28;20035;-77
2022/04/12 09:58:21;;;;;;;9.73;2.35;;;19.60;99.90;;;;;;4956858;28;20383;-77
2022/04/12 10:00:49;;;;;;;4.93;2.35;;;19.60;99.90;;;;;;4967947;28;20089;-78
2022/04/12 10:03:21;;;;;;;6.78;2.70;;;19.60;99.90;;;;;;4974556;28;20493;-78
2022/04/12 10:05:48;;;;;;;7.47;2.85;;;19.60;99.90;;;;;;4960741;28;20038;-78
2022/04/12 10:08:19;;;;;;;6.05;2.78;;;19.60;99.90;;;;;;4969612;28;20072;-77
2022/04/12 10:10:47;;;;;;;4.43;1.55;;;19.50;99.90;;;;;;4959251;28;20023;-78
2022/04/12 10:13:16;;;;;;;7.90;2.15;;;19.50;99.90;;;;;;4975299;28;20458;-78
2022/04/12 10:15:44;;;;;;;4.35;1.83;;;19.50;99.90;;;;;;4972690;28;20485;-79
2022/04/12 10:18:18;;;;;;;5.90;2.08;;;19.50;99.90;;;;;;4956713;28;20093;-79
2022/04/12 10:20:45;;;;;;;4.32;2.05;;;19.40;99.90;;;;;;4971978;28;20037;-76
2022/04/12 10:23:17;;;;;;;5.07;1.92;;;19.40;99.90;;;;;;4974236;28;20042;-78
2022/04/12 10:25:48;;;;;;;4.80;2.63;;;19.40;99.90;;;;;;4975173;28;20042;-78
2022/04/12 10:28:16;;;;;;;8.68;2.35;;;19.30;99.90;;;;;;4975291;28;20082;-78
2022/04/12 10:30:43;;;;;;;4.30;2.63;;;19.30;99.90;;;;;;4973917;28;20027;-78
2022/04/12 10:33:27;;;;;;;5.03;2.53;;;19.30;99.90;;;;;;4974506;28;20397;-78
2022/04/12 10:35:55;;;;;;;4.82;2.80;;;19.30;99.90;;;;;;4974589;28;20034;-77
2022/04/12 10:38:24;;;;;;;4.10;2.08;;;19.30;99.90;;;;;;4974818;28;20055;-78
2022/04/12 10:40:54;;;;;;;6.28;2.55;;;19.20;99.90;;;;;;4974124;28;20027;-77
2022/04/12 10:43:33;;;;;;;6.28;3.08;;;19.20;99.90;;;;;;4973742;28;20038;-77
2022/04/12 10:46:07;;;;;;;8.13;3.08;;;19.20;99.90;;;;;;4966934;28;20110;-77
2022/04/12 10:48:34;;;;;;;8.10;3.78;;;19.20;99.90;;;;;;4966574;28;20058;-78
2022/04/12 10:51:04;;;;;;;4.35;2.50;;;19.10;99.90;;;;;;4960242;28;20102;-78
2022/04/12 10:53:38;;;;;;;4.50;3.15;;;19.10;99.90;;;;;;4974518;28;20034;-78
2022/04/12 10:56:11;;;;;;;8.93;3.85;;;19.10;99.90;;;;;;4966578;28;20027;-77
2022/04/12 10:58:39;;;;;;;7.53;2.75;;;19.00;99.90;;;;;;4954534;28;20106;-77
2022/04/12 11:01:12;;;;;;;5.40;2.30;;;19.00;99.90;;;;;;4969512;28;20038;-78
2022/04/12 11:03:43;;;;;;;8.15;4.93;;;19.00;99.90;;;;;;4972682;28;20558;-78
2022/04/12 11:06:21;;;;;;;4.03;2.33;;;19.00;99.90;;;;;;4974234;28;20058;-78
2022/04/12 11:08:51;;;;;;;9.45;2.72;;;19.00;99.90;;;;;;4958825;28;20122;-78
2022/04/12 11:11:21;;;;;;;4.78;2.67;;;18.90;99.90;;;;;;4966361;28;20027;-78
2022/04/12 11:13:50;;;;;;;8.20;2.70;;;18.90;99.90;;;;;;4967217;28;20376;-75
2022/04/12 11:16:24;;;;;;;5.22;2.15;;;18.90;99.90;;;;;;4971965;28;20058;-77
2022/04/12 11:18:57;;;;;;;5.13;2.45;;;18.80;99.90;;;;;;4963018;28;20037;-77
2022/04/12 11:21:48;;;;;;;7.20;2.95;;;18.80;99.90;;;;;;4959634;28;20027;-76
2022/04/12 11:24:21;;;;;;;5.90;2.28;;;18.70;99.90;;;;;;4962677;28;20046;-76
2022/04/12 11:27:06;;;;;;;3.38;1.98;;;18.70;99.90;;;;;;4974814;28;20046;-75
2022/04/12 11:29:34;;;;;;;6.43;1.70;;;18.70;99.90;;;;;;4980117;28;20035;-76
2022/04/12 11:32:02;;;;;;;8.38;3.15;;;18.60;99.90;;;;;;4981696;28;20087;-76
2022/04/12 11:34:31;;;;;;;5.72;1.85;;;18.60;99.90;;;;;;4965631;28;20031;-77
2022/04/12 11:37:01;;;;;;;5.25;1.88;;;18.50;99.90;;;;;;4967960;28;20069;-77
2022/04/12 11:39:37;;;;;;;5.25;1.67;;;18.60;99.90;;;;;;4961011;28;20061;-77
2022/04/12 11:42:08;;;;;;;4.97;2.10;;;18.50;99.90;;;;;;4966193;28;20044;-78
2022/04/12 11:44:35;;;;;;;2.70;1.75;;;18.50;99.90;;;;;;4957634;28;20085;-77
2022/04/12 11:47:06;;;;;;;5.63;2.28;;;18.50;99.90;;;;;;4963690;28;20031;-77
2022/04/12 11:49:44;;;;;;;7.05;2.22;;;18.50;99.90;;;;;;4963613;28;20058;-79
2022/04/12 11:52:13;;;;;;;4.28;1.77;;;18.40;99.90;;;;;;4964691;28;20038;-76
2022/04/12 11:54:42;;;;;;;4.07;2.28;;;18.40;99.90;;;;;;4960836;28;20862;-78
2022/04/12 11:57:21;;;;;;;3.72;1.77;;;18.40;99.90;;;;;;4955937;28;20560;-77
2022/04/12 11:59:58;;;;;;;4.60;2.10;;;18.40;99.90;;;;;;4971338;28;20101;-77
2022/04/12 12:02:26;;;;;;;4.68;1.77;;;18.40;99.90;;;;;;4966677;28;20027;-78
2022/04/12 12:05:02;;;;;;;3.40;1.60;;;18.40;99.90;;;;;;4960303;28;20055;-79
2022/04/12 12:07:29;;;;;;;6.43;2.85;;;18.40;99.90;;;;;;4958369;28;20544;-77
2022/04/12 12:10:02;;;;;;;8.70;2.00;;;18.40;99.90;;;;;;4971559;28;20034;-76
2022/04/12 12:12:48;;;;;;;6.03;1.90;;;18.40;99.90;;;;;;4963008;28;20066;-78
2022/04/12 12:15:26;;;;;;;4.05;1.75;;;18.30;99.90;;;;;;4969002;28;20023;-77
2022/04/12 12:17:58;;;;;;;6.28;1.90;;;18.30;99.90;;;;;;4964966;28;20026;-75
2022/04/12 12:20:30;;;;;;;4.38;1.58;;;18.20;99.90;;;;;;4979666;28;20508;-78
2022/04/12 12:23:00;;;;;;;5.03;1.60;;;18.20;99.90;;;;;;4975642;28;20046;-77
2022/04/12 12:25:54;;;;;;;7.38;1.95;;;18.10;99.90;;;;;;4973058;28;20039;-77
2022/04/12 12:28:24;;;;;;;3.95;1.95;;;18.10;99.90;;;;;;4962763;28;20034;-77
2022/04/12 12:30:59;;;;;;;10.20;2.97;;;18.10;99.90;;;;;;4968254;28;20035;-77
2022/04/12 12:33:43;;;;;;;8.02;2.90;;;18.00;99.90;;;;;;4970664;28;20106;-77
2022/04/12 12:36:21;;;;;;;3.72;1.90;;;18.00;99.90;;;;;;4964799;28;20563;-77
2022/04/12 12:38:49;;;;;;;4.88;2.67;;;18.00;99.90;;;;;;4975901;28;20051;-79
2022/04/12 12:41:31;;;;;;;5.00;1.88;;;17.90;99.90;;;;;;4962268;28;20053;-79
2022/04/12 12:44:02;;;;;;;3.30;1.63;;;17.90;99.90;;;;;;4963165;28;20153;-78
2022/04/12 12:46:34;;;;;;;3.13;2.03;;;17.80;99.90;;;;;;4966231;28;20031;-79
2022/04/12 12:49:13;;;;;;;6.85;2.40;;;17.80;99.90;;;;;;4962563;28;20118;-77
2022/04/12 12:51:41;;;;;;;5.13;2.22;;;17.80;99.90;;;;;;4969292;28;20030;-78
2022/04/12 12:54:13;;;;;;;11.32;2.90;;;17.70;99.90;;;;;;4967283;28;20474;-78
2022/04/12 12:56:40;;;;;;;3.60;2.22;;;17.70;99.90;;;;;;4967798;28;20046;-77
2022/04/12 12:59:17;;;;;;;12.05;2.47;;;17.70;99.90;;;;;;4961638;28;20070;-78
2022/04/12 13:01:49;;;;;;;4.60;2.42;;;17.60;99.90;;;;;;4970392;28;20023;-77